Homer, North Dakota
Current Conditions -  °F | °C
As of 8:07 AM on Sunday 25 Jan 2015 (Local Time) from KJMS Reporting Station
Overcast Overcast  
Wind Chill: 20°   Ceiling: 1400
Heat Index: 20°   Visibility: 10mi
Dew Point: 16°   Wind: 3mph
Humidity: 85%   Direction: 10°N
Pressure: 29.98"   Gusts: NA
Location:  46.8494°N, 98.7424°W
Report Text: KJMS 251407Z AUTO 01003KT 10SM OVC014 M07/M09 A2998 RMK AO2 T10671089
Loading
Personal Weather Stations






























Interactive Weather Map New forecast layout! Learn more

10-Day Weather Forecast

Advertisements
Track Severe Weather on mobile